createdAt,value
2022-11-22T00:01:18.671Z,80.70
2022-11-22T00:03:45.014Z,80.90
2022-11-22T00:06:11.341Z,80.65
2022-11-22T00:08:37.672Z,80.02
2022-11-22T00:11:04.020Z,80.21
2022-11-22T00:13:30.359Z,80.05
2022-11-22T00:15:58.861Z,79.57
2022-11-22T00:18:25.200Z,79.92
2022-11-22T00:20:51.557Z,79.64
2022-11-22T00:23:17.886Z,79.14
2022-11-22T00:25:45.356Z,78.90
2022-11-22T00:28:11.701Z,79.38
2022-11-22T00:30:38.041Z,79.70
2022-11-22T00:33:04.428Z,79.09
2022-11-22T00:35:30.842Z,79.19
2022-11-22T00:37:57.166Z,79.46
2022-11-22T00:40:23.510Z,78.92
2022-11-22T00:42:49.837Z,78.70
2022-11-22T00:45:16.209Z,78.88
2022-11-22T00:47:42.546Z,79.44
2022-11-22T00:50:09.790Z,78.96
2022-11-22T00:52:36.134Z,79.41
2022-11-22T00:55:02.530Z,79.85
2022-11-22T00:57:28.875Z,80.56
2022-11-22T00:59:55.221Z,80.67
2022-11-22T01:02:21.606Z,80.72
2022-11-22T01:04:47.979Z,80.70
2022-11-22T01:07:14.371Z,80.84
2022-11-22T01:09:40.837Z,81.46
2022-11-22T01:12:07.262Z,81.37
2022-11-22T01:14:33.770Z,81.08
2022-11-22T01:17:00.332Z,81.33
2022-11-22T01:19:26.761Z,82.45
2022-11-22T01:21:53.111Z,82.54
2022-11-22T01:24:19.461Z,82.89
2022-11-22T01:26:45.927Z,83.16
2022-11-22T01:29:12.283Z,83.21
2022-11-22T01:31:38.624Z,83.25
2022-11-22T01:34:05.492Z,83.58
2022-11-22T01:36:31.847Z,83.94
2022-11-22T01:38:58.210Z,84.02
2022-11-22T01:41:24.598Z,83.81
2022-11-22T01:43:50.944Z,83.99
2022-11-22T01:46:34.319Z,84.12
2022-11-22T01:49:14.371Z,84.15
2022-11-22T01:51:46.396Z,84.27
2022-11-22T01:54:17.444Z,84.20
2022-11-22T01:56:47.978Z,84.14
2022-11-22T01:59:19.431Z,84.23
2022-11-22T02:01:46.004Z,84.15
2022-11-22T02:04:15.659Z,84.13
2022-11-22T02:07:01.518Z,84.17
2022-11-22T02:09:29.680Z,84.22
2022-11-22T02:11:58.355Z,84.22
2022-11-22T02:14:27.315Z,84.04
2022-11-22T02:16:53.937Z,84.25
2022-11-22T02:19:31.823Z,83.99
2022-11-22T02:22:06.438Z,84.14
2022-11-22T02:24:45.477Z,83.89
2022-11-22T02:27:11.857Z,83.45
2022-11-22T02:29:38.807Z,83.90
2022-11-22T02:32:05.215Z,83.73
2022-11-22T02:34:44.310Z,83.86
2022-11-22T02:37:13.711Z,83.06
2022-11-22T02:39:41.696Z,83.66
2022-11-22T02:42:08.136Z,82.99
2022-11-22T02:44:34.597Z,83.06
2022-11-22T02:47:00.994Z,82.67
2022-11-22T02:49:27.371Z,82.72
2022-11-22T02:51:53.798Z,82.28
2022-11-22T02:54:20.209Z,82.57
2022-11-22T02:56:47.124Z,82.17
2022-11-22T02:59:13.843Z,82.42
2022-11-22T03:01:40.905Z,82.19
2022-11-22T03:04:07.297Z,82.02
2022-11-22T03:06:33.712Z,82.50
2022-11-22T03:09:00.166Z,82.41
2022-11-22T03:11:26.628Z,82.22
2022-11-22T03:13:52.991Z,82.00
2022-11-22T03:16:19.330Z,81.93
2022-11-22T03:18:45.681Z,81.41
2022-11-22T03:21:12.287Z,81.56
2022-11-22T03:23:38.708Z,81.43
2022-11-22T03:26:11.888Z,81.92
2022-11-22T03:28:38.292Z,81.78
2022-11-22T03:31:06.216Z,81.42
2022-11-22T03:33:33.716Z,81.34
2022-11-22T03:36:00.163Z,81.34
2022-11-22T03:38:26.505Z,81.71
2022-11-22T03:40:52.838Z,81.39
2022-11-22T03:43:19.192Z,81.40
2022-11-22T03:45:46.947Z,81.45
2022-11-22T03:48:13.944Z,81.80
2022-11-22T03:50:40.443Z,81.65
2022-11-22T03:53:07.083Z,81.10
2022-11-22T03:55:33.791Z,81.49
2022-11-22T03:58:00.230Z,81.11
2022-11-22T04:00:26.666Z,81.64
2022-11-22T04:02:53.021Z,80.78
2022-11-22T04:05:19.386Z,81.08
2022-11-22T04:07:45.762Z,81.08
2022-11-22T04:10:13.043Z,81.28
2022-11-22T04:12:40.770Z,81.67
2022-11-22T04:15:07.480Z,81.60
2022-11-22T04:17:40.546Z,81.37
2022-11-22T04:20:28.016Z,81.38
2022-11-22T04:22:57.994Z,81.64
2022-11-22T04:25:27.314Z,81.78
2022-11-22T04:27:53.971Z,81.78
2022-11-22T04:30:21.106Z,81.43
2022-11-22T04:32:47.821Z,81.98
2022-11-22T04:35:18.366Z,81.79
2022-11-22T04:37:50.977Z,81.57
2022-11-22T04:40:17.406Z,81.62
2022-11-22T04:43:02.209Z,81.83
2022-11-22T04:45:28.540Z,81.77
2022-11-22T04:48:00.730Z,81.82
2022-11-22T04:50:48.361Z,82.05
2022-11-22T04:53:15.792Z,82.13
2022-11-22T04:55:44.540Z,81.61
2022-11-22T04:58:11.656Z,81.86
2022-11-22T05:00:38.669Z,82.05
2022-11-22T05:03:05.810Z,81.65
2022-11-22T05:05:36.558Z,81.58
2022-11-22T05:08:03.828Z,81.72
2022-11-22T05:10:50.339Z,81.57
2022-11-22T05:13:17.857Z,81.80
2022-11-22T05:15:44.286Z,81.49
2022-11-22T05:18:10.894Z,81.48
2022-11-22T05:20:37.314Z,81.32
2022-11-22T05:23:22.679Z,81.25
2022-11-22T05:25:49.134Z,81.24
2022-11-22T05:28:15.511Z,81.21
2022-11-22T05:30:42.219Z,81.11
2022-11-22T05:33:08.555Z,81.32
2022-11-22T05:35:34.945Z,81.13
2022-11-22T05:38:01.262Z,80.94
2022-11-22T05:40:27.637Z,80.84
2022-11-22T05:42:53.972Z,80.81
2022-11-22T05:45:20.315Z,80.62
2022-11-22T05:47:46.679Z,80.49
2022-11-22T05:50:13.297Z,80.37
2022-11-22T05:52:39.641Z,80.39
2022-11-22T05:55:06.613Z,80.22
2022-11-22T05:57:33.040Z,80.14
2022-11-22T05:59:59.546Z,79.58
2022-11-22T06:02:26.328Z,79.58
2022-11-22T06:04:52.706Z,79.06
2022-11-22T06:07:19.143Z,78.55
2022-11-22T06:09:45.493Z,78.32
2022-11-22T06:12:11.825Z,78.26
2022-11-22T06:14:43.002Z,78.17
2022-11-22T06:17:09.946Z,78.28
2022-11-22T06:19:36.375Z,78.53
2022-11-22T06:22:03.586Z,78.33
2022-11-22T06:24:29.976Z,78.17
2022-11-22T06:26:56.302Z,78.26
2022-11-22T06:29:22.637Z,77.96
2022-11-22T06:31:48.957Z,77.78
2022-11-22T06:34:15.313Z,77.72
2022-11-22T06:36:41.670Z,77.61
2022-11-22T06:39:08.101Z,77.81
2022-11-22T06:41:37.078Z,77.50
2022-11-22T06:44:05.924Z,77.17
2022-11-22T06:46:32.780Z,77.67
2022-11-22T06:48:59.139Z,77.36
2022-11-22T06:51:30.446Z,77.84
2022-11-22T06:53:58.063Z,77.79
2022-11-22T06:56:33.027Z,77.76
2022-11-22T06:59:03.743Z,77.73
2022-11-22T07:01:31.021Z,77.68
2022-11-22T07:03:59.273Z,77.70
2022-11-22T07:06:31.304Z,77.31
2022-11-22T07:08:59.461Z,77.68
2022-11-22T07:11:28.366Z,77.64
2022-11-22T07:14:01.722Z,77.93
2022-11-22T07:16:31.939Z,77.84
2022-11-22T07:18:59.538Z,77.89
2022-11-22T07:21:26.733Z,77.83
2022-11-22T07:23:54.678Z,77.75
2022-11-22T07:26:23.675Z,77.39
2022-11-22T07:28:50.005Z,77.36
2022-11-22T07:31:17.427Z,77.19
2022-11-22T07:33:44.672Z,76.97
2022-11-22T07:36:13.686Z,76.88
2022-11-22T07:38:40.631Z,76.79
2022-11-22T07:41:08.036Z,77.09
2022-11-22T07:43:35.030Z,77.12
2022-11-22T07:46:02.954Z,77.39
2022-11-22T07:48:29.553Z,77.42
2022-11-22T07:50:55.974Z,77.14
2022-11-22T07:53:22.343Z,77.39
2022-11-22T07:55:48.737Z,77.69
2022-11-22T07:58:15.070Z,77.45
2022-11-22T08:00:41.418Z,77.72
2022-11-22T08:03:08.714Z,77.43
2022-11-22T08:05:35.109Z,77.07
2022-11-22T08:08:01.452Z,76.31
2022-11-22T08:10:27.802Z,75.87
2022-11-22T08:12:54.150Z,76.03
2022-11-22T08:15:20.664Z,75.36
2022-11-22T08:17:47.029Z,75.08
2022-11-22T08:20:13.666Z,74.85
2022-11-22T08:22:40.825Z,74.81
2022-11-22T08:25:12.379Z,74.05
2022-11-22T08:27:43.053Z,74.21
2022-11-22T08:30:11.435Z,73.62
2022-11-22T08:32:38.271Z,73.36
2022-11-22T08:35:05.344Z,73.15
2022-11-22T08:37:31.730Z,72.99
2022-11-22T08:39:58.075Z,72.81
2022-11-22T08:42:24.473Z,72.53
2022-11-22T08:44:50.933Z,72.18
2022-11-22T08:47:17.407Z,70.89
2022-11-22T08:49:43.789Z,71.31
2022-11-22T08:52:10.202Z,71.01
2022-11-22T08:54:38.108Z,70.78
2022-11-22T08:57:05.138Z,70.90
2022-11-22T08:59:31.856Z,69.69
2022-11-22T09:01:58.516Z,70.00
2022-11-22T09:04:24.943Z,69.60
2022-11-22T09:09:38.335Z,67.68
2022-11-22T09:12:05.340Z,68.34
2022-11-22T09:14:31.823Z,67.58
2022-11-22T09:16:58.233Z,66.96
2022-11-22T09:19:24.647Z,66.77
2022-11-22T09:21:50.981Z,67.01
2022-11-22T09:24:17.421Z,65.61
2022-11-22T09:26:43.771Z,65.09
2022-11-22T09:29:10.272Z,65.42
2022-11-22T09:31:36.597Z,65.08
2022-11-22T09:34:03.077Z,64.97
2022-11-22T09:36:29.487Z,65.17
2022-11-22T09:38:56.813Z,64.71
2022-11-22T09:41:39.979Z,64.22
2022-11-22T09:44:23.488Z,64.12
2022-11-22T09:46:58.283Z,63.67
2022-11-22T09:50:10.101Z,62.73
2022-11-22T09:52:43.972Z,63.59
2022-11-22T09:55:45.258Z,63.34
2022-11-22T09:58:28.479Z,61.53
2022-11-22T10:01:02.105Z,62.06
2022-11-22T10:03:57.497Z,63.73
2022-11-22T10:06:31.990Z,62.12
2022-11-22T10:09:20.621Z,62.29
2022-11-22T10:12:09.472Z,62.16
2022-11-22T10:14:57.550Z,61.84
2022-11-22T10:17:36.624Z,61.40
2022-11-22T10:20:11.150Z,61.39
2022-11-22T10:22:37.563Z,62.77
2022-11-22T10:25:14.844Z,63.07
2022-11-22T10:27:41.879Z,63.60
2022-11-22T10:30:20.259Z,63.02
2022-11-22T10:32:52.576Z,64.25
2022-11-22T10:35:42.651Z,63.90
2022-11-22T10:38:25.792Z,63.97
2022-11-22T10:41:11.744Z,62.45
2022-11-22T10:43:55.287Z,63.67
2022-11-22T10:46:43.288Z,63.34
2022-11-22T10:49:37.565Z,63.98
2022-11-22T10:52:16.985Z,63.67
2022-11-22T10:55:22.190Z,61.80
2022-11-22T10:57:59.898Z,61.77
2022-11-22T11:00:29.525Z,61.19
2022-11-22T11:03:06.100Z,61.70
2022-11-22T11:06:00.779Z,60.36
2022-11-22T11:09:02.523Z,60.20
2022-11-22T11:11:26.584Z,60.19
2022-11-22T11:13:58.879Z,58.95
2022-11-22T11:16:28.733Z,60.31
2022-11-22T11:19:16.815Z,59.31
2022-11-22T11:21:43.841Z,59.72
2022-11-22T11:24:14.956Z,59.32
2022-11-22T11:26:43.958Z,59.54
2022-11-22T11:29:19.333Z,59.06
2022-11-22T11:31:50.794Z,59.04
2022-11-22T11:34:28.962Z,58.44
2022-11-22T11:37:00.975Z,59.57
2022-11-22T11:39:36.267Z,58.22
2022-11-22T11:42:22.448Z,57.57
2022-11-22T11:44:48.812Z,58.53
2022-11-22T11:47:34.841Z,58.44
2022-11-22T11:50:01.234Z,59.32
2022-11-22T11:52:29.697Z,59.71
2022-11-22T11:55:02.234Z,58.57
2022-11-22T11:57:36.183Z,60.62
2022-11-22T12:00:06.706Z,59.62
2022-11-22T12:02:41.833Z,59.71
2022-11-22T12:05:14.063Z,59.11
2022-11-22T12:07:44.556Z,58.15
2022-11-22T12:10:47.550Z,59.24
2022-11-22T12:13:30.045Z,58.92
2022-11-22T12:16:22.432Z,59.40
2022-11-22T12:19:04.306Z,59.93
2022-11-22T12:21:53.477Z,61.11
2022-11-22T12:25:16.571Z,60.86
2022-11-22T12:27:37.157Z,60.91
2022-11-22T12:30:03.828Z,60.47
2022-11-22T12:32:43.650Z,60.48
2022-11-22T12:35:20.287Z,59.67
2022-11-22T12:38:08.434Z,59.19
2022-11-22T12:40:55.590Z,59.41
2022-11-22T12:43:29.630Z,59.97
2022-11-22T12:46:05.680Z,59.06
2022-11-22T12:48:48.768Z,59.14
2022-11-22T12:51:24.675Z,58.55
2022-11-22T12:53:53.080Z,59.55
2022-11-22T12:56:29.816Z,60.34
2022-11-22T12:59:11.373Z,59.58
2022-11-22T13:01:52.045Z,59.38
2022-11-22T13:04:26.330Z,59.57
2022-11-22T13:06:58.474Z,59.63
2022-11-22T13:09:31.352Z,59.79
2022-11-22T13:12:03.546Z,60.29
2022-11-22T13:14:47.508Z,60.33
2022-11-22T13:17:17.160Z,61.17
2022-11-22T13:19:55.220Z,60.95
2022-11-22T13:22:28.719Z,61.61
2022-11-22T13:25:01.036Z,60.88
2022-11-22T13:27:44.773Z,61.22
2022-11-22T13:30:22.850Z,61.15
2022-11-22T13:32:55.424Z,60.85
2022-11-22T13:35:32.204Z,60.83
2022-11-22T13:38:09.482Z,61.05
2022-11-22T13:40:45.102Z,61.04
2022-11-22T13:43:15.616Z,61.03
2022-11-22T13:45:51.453Z,60.81
2022-11-22T13:48:40.288Z,61.04
2022-11-22T13:51:18.529Z,61.19
2022-11-22T13:53:46.666Z,61.75
2022-11-22T13:56:16.019Z,61.68
2022-11-22T13:58:51.136Z,61.58
2022-11-22T14:01:36.267Z,62.02
2022-11-22T14:04:19.677Z,62.21
2022-11-22T14:07:09.237Z,60.68
2022-11-22T14:09:38.072Z,62.02
2022-11-22T14:12:10.495Z,61.51
2022-11-22T14:15:10.786Z,61.83
2022-11-22T14:17:52.308Z,61.95
2022-11-22T14:20:46.551Z,62.73
2022-11-22T14:23:40.697Z,62.72
2022-11-22T14:26:21.401Z,62.63
2022-11-22T14:29:19.176Z,62.44
2022-11-22T14:32:00.583Z,62.80
2022-11-22T14:34:30.220Z,63.26
2022-11-22T14:37:18.116Z,63.61
2022-11-22T14:39:44.419Z,63.94
2022-11-22T14:42:35.633Z,62.76
2022-11-22T14:45:04.873Z,63.44
2022-11-22T14:47:35.218Z,63.99
2022-11-22T14:50:04.744Z,63.64
2022-11-22T14:52:32.936Z,64.20
2022-11-22T14:55:02.487Z,63.63
2022-11-22T14:57:31.762Z,64.21
2022-11-22T15:00:23.989Z,64.08
2022-11-22T15:03:38.278Z,64.39
2022-11-22T15:09:14.561Z,63.72
2022-11-22T15:09:53.536Z,64.52
2022-11-22T15:12:50.713Z,64.31
2022-11-22T15:59:46.795Z,66.60
2022-11-22T16:02:16.637Z,65.97
2022-11-22T16:06:05.693Z,65.63
2022-11-22T16:07:48.025Z,66.12
2022-11-22T16:10:26.451Z,66.74
2022-11-22T16:12:53.609Z,66.57
2022-11-22T16:15:37.026Z,66.32
2022-11-22T16:18:27.399Z,66.27
2022-11-22T16:21:02.245Z,66.69
2022-11-22T16:23:31.195Z,67.17
2022-11-22T16:26:17.082Z,67.56
2022-11-22T16:28:43.701Z,66.96
2022-11-22T16:31:17.395Z,67.46
2022-11-22T16:33:44.577Z,67.30
2022-11-22T16:36:16.220Z,67.51
2022-11-22T16:38:43.696Z,67.51
2022-11-22T16:41:29.138Z,67.25
2022-11-22T16:44:11.552Z,67.74
2022-11-22T16:46:39.715Z,68.14
2022-11-22T16:49:20.562Z,68.20
2022-11-22T16:51:48.529Z,68.03
2022-11-22T16:56:44.828Z,68.56
2022-11-22T16:59:14.662Z,68.87
2022-11-22T17:01:42.616Z,68.97
2022-11-22T17:04:23.601Z,68.79
2022-11-22T17:06:50.326Z,68.72
2022-11-22T17:09:16.753Z,68.84
2022-11-22T17:11:44.505Z,69.04
2022-11-22T17:14:14.517Z,69.33
2022-11-22T17:16:42.213Z,69.99
2022-11-22T17:19:30.276Z,70.95
2022-11-22T17:21:55.878Z,71.46
2022-11-22T17:24:23.696Z,71.00
2022-11-22T17:26:50.074Z,71.45
2022-11-22T17:29:35.286Z,71.75
2022-11-22T17:32:02.807Z,71.97
2022-11-22T17:34:29.753Z,72.08
2022-11-22T17:36:56.355Z,72.93
2022-11-22T17:39:22.715Z,72.55
2022-11-22T17:41:49.408Z,73.42
2022-11-22T17:44:17.849Z,74.58
2022-11-22T17:46:44.217Z,76.22
2022-11-22T17:49:15.635Z,76.38
2022-11-22T17:51:42.907Z,76.97
2022-11-22T17:54:09.464Z,77.78
2022-11-22T17:56:37.122Z,78.03
2022-11-22T17:59:04.163Z,77.85
2022-11-22T18:01:30.530Z,77.60
2022-11-22T18:03:57.059Z,77.69
2022-11-22T18:06:23.441Z,77.94
2022-11-22T18:08:49.854Z,78.32
2022-11-22T18:11:16.463Z,78.78
2022-11-22T18:13:43.703Z,78.28
2022-11-22T18:16:13.970Z,78.39
2022-11-22T18:18:57.571Z,78.03
2022-11-22T18:21:25.506Z,78.13
2022-11-22T18:23:51.937Z,79.87
2022-11-22T18:31:52.662Z,82.27
2022-11-22T18:34:19.747Z,82.69
2022-11-22T18:37:03.909Z,83.67
2022-11-22T18:39:36.808Z,83.40
2022-11-22T18:42:08.708Z,83.71
2022-11-22T18:44:35.111Z,83.64
2022-11-22T18:47:01.897Z,83.80
2022-11-22T18:49:28.447Z,84.13
2022-11-22T18:51:55.549Z,84.10
2022-11-22T18:54:22.706Z,84.14
2022-11-22T18:56:50.090Z,84.52
2022-11-22T18:59:17.127Z,84.24
2022-11-22T19:01:43.552Z,84.78
2022-11-22T19:04:14.034Z,84.63
2022-11-22T19:06:41.744Z,84.47
2022-11-22T19:09:08.971Z,84.57
2022-11-22T19:11:35.611Z,84.61
2022-11-22T19:14:02.248Z,84.52
2022-11-22T19:16:30.001Z,84.19
2022-11-22T19:18:57.546Z,84.65
2022-11-22T19:21:26.729Z,84.90
2022-11-22T19:23:54.059Z,84.33
2022-11-22T19:26:23.226Z,84.69
2022-11-22T19:28:52.009Z,84.67
2022-11-22T19:31:21.139Z,84.49
2022-11-22T19:33:48.236Z,84.18
2022-11-22T19:36:20.655Z,84.53
2022-11-22T19:38:47.883Z,84.31
2022-11-22T19:41:20.044Z,84.34
2022-11-22T19:43:47.943Z,83.94
2022-11-22T19:46:15.070Z,83.64
2022-11-22T19:48:46.866Z,84.47
2022-11-22T19:51:15.462Z,84.34
2022-11-22T19:53:42.063Z,84.86
2022-11-22T19:56:17.380Z,84.78
2022-11-22T19:58:49.440Z,84.50
2022-11-22T20:01:16.554Z,84.80
2022-11-22T20:03:43.803Z,84.74
2022-11-22T20:06:12.706Z,85.22
2022-11-22T20:08:39.666Z,84.83
2022-11-22T20:11:13.945Z,85.46
2022-11-22T20:13:43.193Z,85.23
2022-11-22T20:16:12.274Z,85.42
2022-11-22T20:18:38.660Z,85.15
2022-11-22T20:21:07.037Z,84.72
2022-11-22T20:23:33.655Z,84.92
2022-11-22T20:26:10.753Z,85.02
2022-11-22T20:28:42.056Z,85.04
2022-11-22T20:31:11.239Z,85.44
2022-11-22T20:33:40.122Z,85.33
2022-11-22T20:36:28.102Z,84.64
2022-11-22T20:38:55.303Z,84.67
2022-11-22T20:41:24.706Z,84.89
2022-11-22T20:43:51.864Z,84.87
2022-11-22T20:46:20.871Z,84.50
2022-11-22T20:48:48.886Z,83.87
2022-11-22T20:51:21.063Z,83.46
2022-11-22T20:53:47.749Z,82.68
2022-11-22T20:56:14.985Z,82.61
2022-11-22T20:58:42.356Z,82.92
2022-11-22T21:01:17.506Z,82.46
2022-11-22T21:03:44.621Z,82.77
2022-11-22T21:06:12.562Z,82.34
2022-11-22T21:08:39.485Z,82.09
2022-11-22T21:11:10.125Z,82.15
2022-11-22T21:13:36.840Z,81.44
2022-11-22T21:16:15.643Z,81.37
2022-11-22T21:18:53.706Z,80.79
2022-11-22T21:21:22.929Z,80.68
2022-11-22T21:23:51.081Z,80.96
2022-11-22T21:26:18.083Z,80.19
2022-11-22T21:28:47.564Z,80.46
2022-11-22T21:31:14.061Z,80.41
2022-11-22T21:33:42.438Z,80.37
2022-11-22T21:36:09.348Z,80.62
2022-11-22T21:38:38.234Z,80.96
2022-11-22T21:41:32.340Z,80.27
2022-11-22T21:43:55.680Z,80.30
2022-11-22T21:46:22.156Z,80.09
2022-11-22T21:48:49.910Z,80.24
2022-11-22T21:51:16.313Z,80.22
2022-11-22T21:53:42.683Z,80.52
2022-11-22T21:56:09.112Z,80.65
2022-11-22T21:58:35.447Z,80.43
2022-11-22T22:01:03.503Z,80.63
2022-11-22T22:03:30.530Z,80.82
2022-11-22T22:05:57.706Z,80.69
2022-11-22T22:08:29.234Z,81.26
2022-11-22T22:10:58.668Z,81.13
2022-11-22T22:13:25.598Z,81.56
2022-11-22T22:15:57.270Z,81.76
2022-11-22T22:18:28.734Z,81.41
2022-11-22T22:21:00.244Z,81.57
2022-11-22T22:23:26.817Z,81.53
2022-11-22T22:25:58.477Z,81.23
2022-11-22T22:28:26.429Z,81.36
2022-11-22T22:30:52.760Z,82.18
2022-11-22T22:33:19.122Z,81.69
2022-11-22T22:35:45.459Z,81.82
2022-11-22T22:38:11.804Z,81.17
2022-11-22T22:40:38.163Z,81.25
2022-11-22T22:43:04.497Z,81.39
2022-11-22T22:45:30.833Z,81.66
2022-11-22T22:47:58.114Z,81.69
2022-11-22T22:50:24.479Z,82.25
2022-11-22T22:52:50.963Z,82.79
2022-11-22T22:55:17.319Z,82.50
2022-11-22T22:57:43.646Z,83.06
2022-11-22T23:00:10.616Z,82.88
2022-11-22T23:02:37.047Z,82.97
2022-11-22T23:05:03.681Z,83.76
2022-11-22T23:07:30.120Z,83.99
2022-11-22T23:09:56.605Z,83.92
2022-11-22T23:12:22.936Z,84.48
2022-11-22T23:14:49.301Z,84.70
2022-11-22T23:17:15.638Z,84.68
2022-11-22T23:19:41.981Z,85.04
2022-11-22T23:22:08.331Z,85.41
2022-11-22T23:24:34.698Z,85.71
2022-11-22T23:27:01.176Z,86.03
2022-11-22T23:29:27.677Z,86.22
2022-11-22T23:31:54.102Z,86.54
2022-11-22T23:34:20.443Z,86.01
2022-11-22T23:36:46.811Z,86.14
2022-11-22T23:39:13.199Z,86.16
2022-11-22T23:41:39.613Z,86.48
2022-11-22T23:44:07.223Z,86.75
2022-11-22T23:46:33.704Z,85.73
2022-11-22T23:49:01.086Z,85.90
2022-11-22T23:51:29.576Z,85.45
2022-11-22T23:53:57.837Z,85.76
2022-11-22T23:56:24.935Z,84.78
2022-11-22T23:58:51.641Z,84.78
